Time;durP1;ratioP1;P1;durP2;ratioP2;P2;SDS_P1;SDS_P2;PMS_P1;PMS_P2;Temp;Humidity;BMP_temperature;BMP_pressure;BME280_temperature;BME280_humidity;BME280_pressure;Samples;Min_cycle;Max_cycle;Signal;HPM_P1;HPM_P2
2021/05/03 00:00:18;;;;;;;17.92;9.18;;;;;;;15.12;82.19;99125.83;1623588;88;21583;-75
2021/05/03 00:02:45;;;;;;;17.60;9.83;;;;;;;15.11;82.16;99122.78;1623593;88;22056;-75
2021/05/03 00:05:22;;;;;;;16.52;8.20;;;;;;;15.08;82.22;99126.06;1623595;88;21057;-75
2021/05/03 00:07:50;;;;;;;17.37;7.75;;;;;;;15.07;82.27;99130.75;1623674;88;21793;-74
2021/05/03 00:10:18;;;;;;;13.83;7.72;;;;;;;15.07;82.28;99127.16;1623591;88;21105;-74
2021/05/03 00:12:47;;;;;;;18.12;9.25;;;;;;;15.05;82.32;99128.80;1623547;88;21133;-74
2021/05/03 00:15:17;;;;;;;16.35;9.80;;;;;;;15.05;82.39;99134.86;1623506;88;21491;-74
2021/05/03 00:17:46;;;;;;;16.27;7.53;;;;;;;15.05;82.43;99136.23;1623583;88;21065;-74
2021/05/03 00:20:15;;;;;;;15.50;7.70;;;;;;;15.06;82.41;99130.45;1623620;88;21616;-75
2021/05/03 00:22:46;;;;;;;12.50;6.60;;;;;;;15.07;82.33;99139.57;1623086;88;21196;-74
2021/05/03 00:25:15;;;;;;;15.70;8.50;;;;;;;15.07;82.38;99139.57;1623617;88;21101;-74
2021/05/03 00:27:43;;;;;;;16.12;8.53;;;;;;;15.05;82.36;99136.23;1627100;87;21602;-74
2021/05/03 00:30:15;;;;;;;12.10;7.45;;;;;;;15.01;82.42;99135.08;1627361;88;21085;-74
2021/05/03 00:32:44;;;;;;;13.18;7.95;;;;;;;15.01;82.40;99135.92;1627506;88;21340;-74
2021/05/03 00:35:12;;;;;;;12.43;8.10;;;;;;;15.03;82.32;99138.42;1627335;88;21288;-74
2021/05/03 00:37:39;;;;;;;13.28;8.00;;;;;;;15.05;82.22;99137.61;1627284;88;21121;-74
2021/05/03 00:40:07;;;;;;;11.95;7.58;;;;;;;15.05;82.13;99138.99;1627342;88;21097;-75
2021/05/03 00:42:34;;;;;;;14.07;7.58;;;;;;;15.05;82.00;99140.37;1627250;88;21081;-74
2021/05/03 00:45:13;;;;;;;11.88;6.67;;;;;;;15.02;81.90;99138.13;1627556;88;21507;-74
2021/05/03 00:47:41;;;;;;;10.43;6.00;;;;;;;15.02;81.76;99140.89;1626714;88;21180;-74
2021/05/03 00:50:10;;;;;;;10.48;6.85;;;;;;;15.02;81.59;99150.00;1627348;88;21585;-74
2021/05/03 00:52:39;;;;;;;12.37;7.00;;;;;;;15.02;81.40;99149.16;1627251;88;21583;-76
2021/05/03 00:55:08;;;;;;;11.18;6.45;;;;;;;15.00;81.23;99142.52;1627288;88;21544;-75
2021/05/03 00:57:35;;;;;;;15.28;6.78;;;;;;;14.98;80.88;99144.70;1627236;88;21057;-73
2021/05/03 01:00:05;;;;;;;11.35;5.40;;;;;;;14.99;80.54;99151.05;1604881;88;21113;-73
2021/05/03 01:02:32;;;;;;;10.28;5.35;;;;;;;14.99;80.09;99152.44;1627219;88;21820;-73
2021/05/03 01:05:00;;;;;;;7.97;5.50;;;;;;;14.96;79.87;99146.89;1627261;88;21749;-74
2021/05/03 01:07:27;;;;;;;10.55;5.67;;;;;;;14.94;79.57;99152.34;1627271;88;21515;-74
2021/05/03 01:09:55;;;;;;;10.25;5.30;;;;;;;14.89;79.14;99150.35;1627193;88;21081;-74
2021/05/03 01:12:22;;;;;;;8.98;5.25;;;;;;;14.87;78.96;99156.13;1627233;88;21117;-74
2021/05/03 01:14:49;;;;;;;8.10;4.80;;;;;;;14.85;78.65;99156.09;1627264;88;21125;-74
2021/05/03 01:17:16;;;;;;;23.42;5.40;;;;;;;14.82;78.24;99151.92;1627253;88;21093;-74
2021/05/03 01:19:44;;;;;;;9.23;5.03;;;;;;;14.78;77.84;99151.31;1627340;88;21171;-74
2021/05/03 01:22:12;;;;;;;8.15;4.45;;;;;;;14.77;77.29;99155.16;1627341;88;21073;-75
2021/05/03 01:24:39;;;;;;;8.13;4.67;;;;;;;14.75;76.85;99165.06;1627269;88;21109;-74
2021/05/03 01:27:06;;;;;;;6.83;3.98;;;;;;;14.73;76.49;99156.76;1627291;88;21144;-74
2021/05/03 01:29:35;;;;;;;9.38;4.80;;;;;;;14.70;76.28;99167.75;1627226;88;21105;-75
2021/05/03 01:32:02;;;;;;;8.83;4.60;;;;;;;14.67;76.02;99174.32;1604626;88;21109;-74
2021/05/03 01:34:30;;;;;;;7.08;3.25;;;;;;;14.62;75.30;99168.19;1627238;88;21081;-73
2021/05/03 01:36:58;;;;;;;6.92;2.80;;;;;;;14.54;73.61;99170.84;1627288;88;21145;-74
2021/05/03 01:39:25;;;;;;;4.47;2.98;;;;;;;14.49;72.77;99172.69;1627254;88;21089;-74
2021/05/03 01:41:52;;;;;;;5.10;3.33;;;;;;;14.45;72.15;99163.26;1627263;88;21092;-75
2021/05/03 01:44:20;;;;;;;4.17;2.55;;;;;;;14.43;71.57;99168.19;1627320;88;21148;-75
2021/05/03 01:46:49;;;;;;;4.33;2.27;;;;;;;14.40;70.65;99160.39;1627308;88;21151;-74
2021/05/03 01:49:16;;;;;;;5.40;2.10;;;;;;;14.34;69.11;99168.30;1627367;88;21085;-74
2021/05/03 01:51:44;;;;;;;5.65;2.42;;;;;;;14.27;68.33;99172.03;1627290;88;21821;-73
2021/05/03 01:54:11;;;;;;;3.12;2.27;;;;;;;14.24;67.75;99164.27;1627377;88;21736;-76
2021/05/03 01:56:39;;;;;;;3.33;2.42;;;;;;;14.21;67.14;99163.94;1627411;88;21093;-74
2021/05/03 01:59:07;;;;;;;5.40;2.35;;;;;;;14.17;67.06;99161.39;1627307;88;21829;-73
2021/05/03 02:01:39;;;;;;;2.80;2.17;;;;;;;14.14;67.12;99164.11;1627326;88;21534;-75
2021/05/03 02:04:07;;;;;;;3.65;1.92;;;;;;;14.10;66.86;99162.94;1626333;88;21113;-75
2021/05/03 02:06:38;;;;;;;6.53;2.40;;;;;;;14.06;66.28;99156.27;1627371;88;21065;-75
2021/05/03 02:09:10;;;;;;;3.47;1.95;;;;;;;14.02;66.01;99163.36;1627351;88;21105;-74
2021/05/03 02:11:39;;;;;;;3.30;2.02;;;;;;;13.96;66.09;99168.49;1627216;88;21269;-74
2021/05/03 02:14:09;;;;;;;3.27;2.02;;;;;;;13.91;65.94;99164.27;1627222;88;21123;-74
2021/05/03 02:16:36;;;;;;;2.25;1.60;;;;;;;13.87;65.49;99168.61;1627252;88;21141;-75
2021/05/03 02:19:04;;;;;;;2.45;1.90;;;;;;;13.81;65.38;99175.95;1627289;88;21124;-75
2021/05/03 02:21:31;;;;;;;4.05;1.90;;;;;;;13.77;65.15;99186.33;1627321;88;21200;-74
2021/05/03 02:23:58;;;;;;;2.12;1.82;;;;;;;13.73;65.03;99187.91;1627331;88;21391;-75
2021/05/03 02:26:26;;;;;;;2.33;1.70;;;;;;;13.64;65.13;99188.82;1628841;87;21122;-75
2021/05/03 02:28:53;;;;;;;6.33;1.95;;;;;;;13.59;65.16;99196.44;1645345;87;21184;-76
2021/05/03 02:31:21;;;;;;;5.62;2.00;;;;;;;13.55;65.16;99202.69;1645433;87;21114;-74
2021/05/03 02:33:48;;;;;;;2.72;2.02;;;;;;;13.50;65.18;99207.55;1620669;87;21106;-75
2021/05/03 02:36:18;;;;;;;3.12;2.60;;;;;;;13.47;65.20;99203.08;1620674;88;21398;-76
2021/05/03 02:38:45;;;;;;;2.80;1.90;;;;;;;13.39;65.45;99205.69;1620685;88;21090;-75
2021/05/03 02:41:12;;;;;;;2.45;1.87;;;;;;;13.34;65.43;99205.59;1620638;87;21142;-74
2021/05/03 02:43:41;;;;;;;3.25;1.70;;;;;;;13.27;65.27;99220.02;1620696;87;21629;-74
2021/05/03 02:46:08;;;;;;;4.30;1.82;;;;;;;13.18;64.74;99224.23;1620636;88;21092;-74
2021/05/03 02:48:36;;;;;;;2.75;1.35;;;;;;;13.11;63.85;99232.59;1620658;88;21147;-74
2021/05/03 02:51:04;;;;;;;2.42;1.45;;;;;;;13.04;62.71;99231.89;1620627;88;21119;-74
2021/05/03 02:53:31;;;;;;;2.72;1.50;;;;;;;12.98;62.21;99221.83;1620632;87;21570;-75
2021/05/03 02:55:59;;;;;;;3.25;1.50;;;;;;;12.91;61.55;99221.97;1620640;87;21789;-75
2021/05/03 02:58:26;;;;;;;1.92;1.30;;;;;;;12.87;61.27;99233.14;1620657;88;21350;-75
2021/05/03 03:00:53;;;;;;;3.35;1.65;;;;;;;12.82;61.31;99234.41;1620616;87;21783;-75
2021/05/03 03:03:21;;;;;;;2.80;1.40;;;;;;;12.77;61.58;99234.30;1620717;87;21103;-74
2021/05/03 03:05:49;;;;;;;2.83;1.40;;;;;;;12.71;61.74;99261.36;1620649;87;21107;-74
2021/05/03 03:08:16;;;;;;;2.40;1.35;;;;;;;12.69;61.83;99267.64;1620683;87;21075;-74
2021/05/03 03:10:44;;;;;;;3.62;1.60;;;;;;;12.62;61.57;99268.30;1620599;88;21079;-74
2021/05/03 03:13:11;;;;;;;2.35;1.70;;;;;;;12.55;61.65;99267.04;1620636;87;21344;-74
2021/05/03 03:15:39;;;;;;;2.33;1.52;;;;;;;12.45;61.60;99276.95;1620640;88;21225;-74
2021/05/03 03:18:07;;;;;;;3.05;1.70;;;;;;;12.34;61.49;99280.78;1620601;88;21393;-74
2021/05/03 03:20:34;;;;;;;2.62;1.47;;;;;;;12.22;61.54;99290.91;1620679;88;21194;-74
2021/05/03 03:23:02;;;;;;;4.42;2.02;;;;;;;12.15;61.24;99314.89;1620628;87;21444;-74
2021/05/03 03:25:29;;;;;;;5.12;1.67;;;;;;;12.02;61.05;99314.55;1620606;88;21207;-75
2021/05/03 03:27:57;;;;;;;2.60;1.70;;;;;;;11.90;61.12;99323.82;1624360;87;21104;-75
2021/05/03 03:30:25;;;;;;;2.77;1.70;;;;;;;11.79;61.44;99323.23;1627248;88;21350;-74
2021/05/03 03:32:52;;;;;;;3.92;1.67;;;;;;;11.67;61.70;99326.70;1627257;88;21352;-74
2021/05/03 03:35:20;;;;;;;2.50;1.52;;;;;;;11.63;61.89;99326.86;1627286;88;21117;-74
2021/05/03 03:37:48;;;;;;;1.95;1.20;;;;;;;11.58;62.04;99338.22;1627297;88;21077;-73
2021/05/03 03:40:17;;;;;;;3.60;1.57;;;;;;;11.53;61.84;99338.08;1627231;88;21108;-74
2021/05/03 03:42:45;;;;;;;5.20;2.10;;;;;;;11.47;61.94;99329.39;1627217;88;21142;-75
2021/05/03 03:45:14;;;;;;;4.80;1.87;;;;;;;11.37;61.98;99339.53;1627302;88;21077;-75
2021/05/03 03:47:44;;;;;;;2.27;1.80;;;;;;;11.27;62.23;99333.21;1627219;88;21661;-75
2021/05/03 03:50:11;;;;;;;2.05;1.70;;;;;;;11.20;62.54;99343.95;1627386;88;21369;-75
2021/05/03 03:52:40;;;;;;;3.58;1.90;;;;;;;11.12;62.51;99338.23;1626994;88;21114;-74
2021/05/03 03:55:10;;;;;;;3.55;1.50;;;;;;;10.99;62.37;99347.94;1627204;88;21073;-75
2021/05/03 03:57:37;;;;;;;2.10;1.50;;;;;;;10.93;62.86;99359.80;1627265;88;21196;-75
2021/05/03 04:00:07;;;;;;;3.47;1.50;;;;;;;10.91;62.98;99371.52;1627294;88;21192;-75
2021/05/03 04:02:36;;;;;;;2.55;1.70;;;;;;;10.94;62.95;99367.80;1627230;88;21140;-75
2021/05/03 04:05:28;;;;;;;1.65;1.45;;;;;;;10.96;63.06;99391.70;1627270;88;21109;-75
2021/05/03 04:08:08;;;;;;;2.17;1.60;;;;;;;10.96;63.02;99378.00;1625199;88;21216;-75
2021/05/03 04:21:07;;;;;;;1.60;1.22;;;;;;;10.85;62.42;99410.78;1627457;88;21229;-74
2021/05/03 04:26:17;;;;;;;3.75;1.55;;;;;;;10.84;62.02;99436.50;1627283;88;21093;-76
2021/05/03 04:28:46;;;;;;;3.15;1.35;;;;;;;10.79;61.51;99429.80;1640623;87;21101;-74
2021/05/03 04:31:14;;;;;;;3.42;1.30;;;;;;;10.76;61.85;99421.18;1645358;87;21188;-76
2021/05/03 04:33:41;;;;;;;3.15;1.30;;;;;;;10.72;61.64;99424.89;1645469;87;21098;-75
2021/05/03 04:36:09;;;;;;;6.35;1.57;;;;;;;10.72;61.75;99438.59;1620591;88;21107;-76
2021/05/03 04:38:37;;;;;;;2.80;1.30;;;;;;;10.73;61.76;99437.53;1620627;87;21621;-74
2021/05/03 04:41:04;;;;;;;3.62;1.30;;;;;;;10.75;61.78;99437.31;1620521;87;21531;-75
2021/05/03 04:43:32;;;;;;;3.15;1.30;;;;;;;10.76;61.39;99437.62;1620571;88;21590;-74
2021/05/03 04:46:00;;;;;;;3.10;1.25;;;;;;;10.76;61.59;99441.73;1620557;87;21576;-75
2021/05/03 04:48:27;;;;;;;1.52;0.90;;;;;;;10.78;61.19;99435.50;1620569;88;21103;-75
2021/05/03 04:50:55;;;;;;;1.30;1.00;;;;;;;10.79;60.95;99438.55;1620580;87;21099;-74
2021/05/03 04:53:23;;;;;;;1.85;0.90;;;;;;;10.81;60.56;99429.57;1620612;87;21108;-74
2021/05/03 04:55:50;;;;;;;2.90;1.00;;;;;;;10.80;60.46;99440.22;1620668;88;21371;-74
2021/05/03 04:58:18;;;;;;;1.30;0.93;;;;;;;10.85;60.20;99441.77;1620724;88;21120;-76
2021/05/03 05:00:46;;;;;;;2.72;0.80;;;;;;;10.88;60.09;99441.84;1620673;88;21132;-76
2021/05/03 05:03:13;;;;;;;1.57;0.88;;;;;;;10.94;59.26;99450.55;1620652;88;21079;-75
2021/05/03 05:05:40;;;;;;;1.95;1.00;;;;;;;10.96;59.50;99441.03;1620600;87;21119;-75
2021/05/03 05:08:08;;;;;;;1.90;1.00;;;;;;;11.00;58.84;99464.19;1620598;87;21106;-74
2021/05/03 05:10:35;;;;;;;1.20;0.80;;;;;;;10.99;58.60;99468.00;1621533;88;21132;-75
2021/05/03 05:13:02;;;;;;;3.00;0.90;;;;;;;10.98;58.34;99460.00;1621927;88;21087;-74
2021/05/03 05:15:29;;;;;;;1.27;0.80;;;;;;;10.97;58.47;99465.17;1621787;87;21107;-74
2021/05/03 05:17:58;;;;;;;1.45;0.80;;;;;;;10.99;58.77;99469.37;1620702;88;21115;-75
2021/05/03 05:20:25;;;;;;;1.20;0.80;;;;;;;11.04;58.45;99442.66;1620699;87;21087;-75
2021/05/03 05:22:52;;;;;;;1.05;0.75;;;;;;;11.08;58.24;99462.58;1620670;87;21624;-74
2021/05/03 05:25:20;;;;;;;1.20;0.72;;;;;;;11.08;57.88;99461.20;1620786;88;21163;-74
2021/05/03 05:27:48;;;;;;;1.10;0.70;;;;;;;11.09;58.02;99456.03;1621851;88;21370;-74
2021/05/03 05:30:16;;;;;;;1.15;0.70;;;;;;;11.11;58.28;99450.33;1627272;88;21089;-75
2021/05/03 05:32:43;;;;;;;0.90;0.65;;;;;;;11.17;58.20;99443.94;1627268;88;21090;-74
2021/05/03 05:35:11;;;;;;;1.35;0.62;;;;;;;11.21;57.90;99462.16;1627824;88;21081;-74
2021/05/03 05:37:38;;;;;;;1.02;0.85;;;;;;;11.21;57.68;99452.55;1629987;88;21138;-76
2021/05/03 05:40:06;;;;;;;1.30;0.57;;;;;;;11.20;57.87;99447.60;1627278;88;21101;-74
2021/05/03 05:42:34;;;;;;;1.57;0.80;;;;;;;11.25;57.98;99442.81;1627308;88;21837;-75
2021/05/03 05:45:03;;;;;;;3.42;0.93;;;;;;;11.29;57.29;99449.52;1627299;88;21553;-75
2021/05/03 05:47:30;;;;;;;2.22;0.78;;;;;;;11.30;57.22;99449.83;1627327;88;21062;-75
2021/05/03 05:49:57;;;;;;;3.10;0.70;;;;;;;11.28;57.27;99448.69;1627282;88;21050;-75
2021/05/03 05:52:25;;;;;;;0.72;0.60;;;;;;;11.30;56.91;99452.04;1627236;88;21533;-75
2021/05/03 05:54:53;;;;;;;2.25;0.80;;;;;;;11.34;56.95;99442.83;1627334;88;21118;-75
2021/05/03 05:57:21;;;;;;;0.80;0.62;;;;;;;11.35;56.91;99448.62;1605115;88;21105;-75
2021/05/03 05:59:48;;;;;;;2.20;0.80;;;;;;;11.39;57.19;99474.00;1627324;88;21794;-75
2021/05/03 06:02:16;;;;;;;1.52;0.60;;;;;;;11.48;56.93;99469.59;1627250;88;21109;-75
2021/05/03 06:04:43;;;;;;;0.93;0.60;;;;;;;11.51;56.66;99496.57;1627269;88;21124;-75
2021/05/03 06:07:11;;;;;;;0.75;0.62;;;;;;;11.51;56.33;99493.30;1627141;88;21065;-75
2021/05/03 06:09:40;;;;;;;0.88;0.60;;;;;;;11.53;55.89;99487.05;1624970;88;21942;-75
2021/05/03 06:12:08;;;;;;;2.27;0.70;;;;;;;11.53;56.18;99483.47;1627221;88;21065;-75
2021/05/03 06:14:36;;;;;;;1.15;0.70;;;;;;;11.60;56.31;99478.22;1627254;88;21912;-77
2021/05/03 06:17:03;;;;;;;0.88;0.60;;;;;;;11.70;56.22;99474.45;1627238;88;21102;-75
2021/05/03 06:19:31;;;;;;;1.07;0.60;;;;;;;11.80;55.74;99507.42;1627200;88;21105;-74
2021/05/03 06:21:58;;;;;;;0.90;0.60;;;;;;;11.87;54.77;99513.67;1627210;88;21192;-75
2021/05/03 06:24:25;;;;;;;0.50;0.40;;;;;;;11.92;54.47;99522.06;1627212;88;21199;-75
2021/05/03 06:26:53;;;;;;;0.95;0.42;;;;;;;11.95;54.48;99511.47;1627599;88;21085;-74
2021/05/03 06:29:20;;;;;;;2.65;0.90;;;;;;;12.03;54.25;99511.69;1639853;86;21326;-75
2021/05/03 06:31:48;;;;;;;1.32;0.50;;;;;;;12.10;54.03;99523.44;1645462;87;21775;-75
2021/05/03 06:34:16;;;;;;;2.65;0.70;;;;;;;12.18;53.14;99518.17;1645406;87;21241;-74
2021/05/03 06:36:43;;;;;;;1.52;0.68;;;;;;;12.24;52.55;99531.82;1620645;88;21599;-75
2021/05/03 06:39:10;;;;;;;1.35;0.75;;;;;;;12.29;52.93;99533.34;1620411;88;21131;-75
2021/05/03 06:41:37;;;;;;;1.57;0.75;;;;;;;12.38;52.12;99518.79;1620656;88;21136;-76
2021/05/03 06:44:05;;;;;;;2.52;0.70;;;;;;;12.40;51.87;99526.27;1620519;87;21292;-75
2021/05/03 06:46:32;;;;;;;0.93;0.50;;;;;;;12.31;52.04;99531.20;1620577;88;21584;-74
2021/05/03 06:49:00;;;;;;;4.10;0.60;;;;;;;12.25;52.26;99538.16;1620554;87;21819;-74
2021/05/03 06:51:28;;;;;;;2.20;0.50;;;;;;;12.22;51.71;99531.21;1620529;87;22100;-74
2021/05/03 06:53:57;;;;;;;2.15;0.55;;;;;;;12.19;52.04;99536.33;1620501;87;21210;-75
2021/05/03 06:56:24;;;;;;;0.85;0.62;;;;;;;12.23;52.10;99535.64;1620645;87;21206;-74
2021/05/03 06:58:51;;;;;;;0.70;0.70;;;;;;;12.29;52.23;99534.72;1620618;87;21087;-74
2021/05/03 07:01:19;;;;;;;1.80;0.50;;;;;;;12.33;51.49;99553.79;1620604;88;21560;-76
2021/05/03 07:03:46;;;;;;;1.22;0.70;;;;;;;12.33;51.74;99542.80;1620567;88;21115;-74
2021/05/03 07:06:13;;;;;;;2.72;0.50;;;;;;;12.41;51.80;99556.79;1620593;88;21099;-76
2021/05/03 07:08:42;;;;;;;1.07;0.60;;;;;;;12.51;51.57;99558.45;1620606;87;21075;-75
2021/05/03 07:11:14;;;;;;;2.42;0.80;;;;;;;12.58;51.52;99569.36;1620550;88;21159;-74
2021/05/03 07:13:40;;;;;;;0.72;0.42;;;;;;;12.64;51.11;99567.06;1620630;87;21060;-77
2021/05/03 07:16:07;;;;;;;1.75;0.70;;;;;;;12.72;51.12;99561.78;1620548;87;21801;-75
2021/05/03 07:18:35;;;;;;;2.10;0.75;;;;;;;12.80;51.38;99567.80;1620505;88;21095;-77
2021/05/03 07:21:04;;;;;;;1.15;0.62;;;;;;;12.87;51.02;99552.58;1620621;88;21580;-77
2021/05/03 07:23:31;;;;;;;1.67;1.05;;;;;;;12.91;50.88;99560.66;1620585;88;21103;-77
2021/05/03 07:26:00;;;;;;;4.00;0.68;;;;;;;12.92;51.08;99567.84;1647521;87;21068;-76
2021/05/03 07:28:27;;;;;;;0.60;0.60;;;;;;;12.96;50.70;99573.17;1650382;87;21070;-77
2021/05/03 07:30:58;;;;;;;1.20;0.80;;;;;;;12.95;51.14;99580.59;1653490;87;21303;-74
2021/05/03 07:33:27;;;;;;;1.22;0.80;;;;;;;12.94;50.60;99588.53;1679980;85;21580;-76
2021/05/03 07:35:54;;;;;;;2.62;0.82;;;;;;;12.86;50.97;99580.61;1678933;85;21067;-77
2021/05/03 07:38:22;;;;;;;1.75;0.85;;;;;;;12.89;51.00;99584.27;1645092;87;21111;-77
2021/05/03 07:40:49;;;;;;;1.20;0.70;;;;;;;12.95;50.76;99594.87;1643954;86;21085;-75
2021/05/03 07:43:17;;;;;;;1.35;0.70;;;;;;;12.91;50.08;99585.41;1643903;86;21143;-75
2021/05/03 07:45:44;;;;;;;2.92;0.90;;;;;;;12.85;50.86;99582.22;1643954;87;21108;-75
2021/05/03 07:48:11;;;;;;;3.58;0.53;;;;;;;12.91;50.91;99584.03;1644059;86;21590;-77
2021/05/03 07:50:41;;;;;;;1.72;0.70;;;;;;;13.05;50.55;99589.68;1643962;86;21257;-75
2021/05/03 07:53:09;;;;;;;1.40;0.70;;;;;;;13.14;50.28;99610.81;1643954;87;21101;-76
2021/05/03 07:55:38;;;;;;;2.15;0.80;;;;;;;13.18;49.63;99596.93;1643756;86;21764;-78
2021/05/03 07:58:07;;;;;;;0.93;0.70;;;;;;;13.22;49.36;99603.10;1643875;86;21556;-78
2021/05/03 08:00:36;;;;;;;1.95;0.53;;;;;;;13.22;49.30;99601.73;1643775;87;21547;-77
2021/05/03 08:03:04;;;;;;;2.60;0.60;;;;;;;13.14;49.31;99589.66;1644016;87;21522;-77
2021/05/03 08:05:31;;;;;;;2.25;0.80;;;;;;;13.15;49.51;99596.83;1644006;87;21363;-75
2021/05/03 08:08:00;;;;;;;1.45;0.70;;;;;;;13.09;49.34;99603.80;1643926;87;21081;-74
2021/05/03 08:10:28;;;;;;;2.20;0.80;;;;;;;13.06;49.68;99600.98;1644283;85;21282;-71
2021/05/03 08:12:55;;;;;;;1.37;0.72;;;;;;;13.05;49.40;99606.18;1688099;84;21070;-73
2021/05/03 08:15:24;;;;;;;3.25;0.70;;;;;;;13.04;49.59;99614.66;1664458;85;21737;-75
2021/05/03 08:17:51;;;;;;;1.67;0.70;;;;;;;13.04;49.96;99642.16;1688800;84;21102;-76
2021/05/03 08:20:19;;;;;;;3.37;0.90;;;;;;;12.94;50.10;99604.19;1667910;85;21193;-74
2021/05/03 08:22:46;;;;;;;1.32;0.70;;;;;;;12.87;50.83;99642.77;1673308;85;21181;-69
2021/05/03 08:25:14;;;;;;;2.20;1.00;;;;;;;12.82;50.80;99611.55;1672343;85;21350;-72
2021/05/03 08:27:41;;;;;;;0.90;0.70;;;;;;;12.79;51.38;99652.70;1653145;86;21147;-75
2021/05/03 08:30:11;;;;;;;0.90;0.80;;;;;;;12.78;51.89;99633.70;1689390;84;21125;-75
2021/05/03 08:32:38;;;;;;;1.87;0.88;;;;;;;12.78;51.83;99624.91;1657347;86;21382;-74
2021/05/03 08:35:07;;;;;;;3.50;0.88;;;;;;;12.80;52.09;99635.68;1686547;85;21375;-73
2021/05/03 08:37:34;;;;;;;4.20;0.98;;;;;;;12.88;51.84;99647.20;1657879;86;21179;-75
2021/05/03 08:40:02;;;;;;;0.80;0.80;;;;;;;12.91;51.46;99658.27;1672173;85;21388;-68
2021/05/03 08:42:30;;;;;;;2.25;0.78;;;;;;;12.89;50.33;99661.25;1632675;87;21334;-69
2021/05/03 08:44:58;;;;;;;1.65;0.80;;;;;;;12.72;49.97;99654.70;1616993;86;21327;-73
2021/05/03 08:47:32;;;;;;;1.10;0.80;;;;;;;12.61;50.33;99637.61;1684434;85;21093;-76
2021/05/03 08:49:57;;;;;;;1.40;0.90;;;;;;;12.55;50.30;99627.00;1632400;88;21762;-73
2021/05/03 08:54:52;;;;;;;0.78;0.78;;;;;;;12.54;50.05;99621.73;1629718;88;21415;-73
2021/05/03 08:57:19;;;;;;;1.72;0.80;;;;;;;12.67;50.11;99635.31;1659087;86;21134;-74
2021/05/03 08:59:47;;;;;;;1.55;0.78;;;;;;;12.84;48.91;99634.98;1666278;85;21089;-74
2021/05/03 09:02:15;;;;;;;2.92;0.82;;;;;;;12.95;48.89;99636.95;1646284;87;21479;-77
2021/05/03 09:04:44;;;;;;;1.30;0.80;;;;;;;13.13;49.03;99640.77;1672098;85;21273;-74
2021/05/03 09:07:14;;;;;;;2.08;0.80;;;;;;;13.36;48.37;99625.75;1648490;87;21787;-71
2021/05/03 09:09:48;;;;;;;0.95;0.65;;;;;;;13.57;47.05;99633.46;1674000;85;21077;-74
2021/05/03 09:12:21;;;;;;;3.22;0.90;;;;;;;13.74;46.35;99625.38;1646476;86;21172;-78
2021/05/03 09:14:56;;;;;;;1.10;0.70;;;;;;;13.81;46.02;99628.86;1674055;85;21101;-73
2021/05/03 09:17:31;;;;;;;1.02;0.80;;;;;;;13.84;45.94;99660.05;1674186;85;21102;-76
2021/05/03 09:20:04;;;;;;;1.02;0.70;;;;;;;13.83;45.16;99655.63;1654298;86;21096;-71
2021/05/03 09:22:41;;;;;;;1.22;0.80;;;;;;;13.69;45.17;99658.83;1661512;85;21094;-71
2021/05/03 09:25:23;;;;;;;1.37;0.70;;;;;;;13.58;45.17;99668.70;1653351;86;21109;-77
2021/05/03 09:28:22;;;;;;;1.85;0.68;;;;;;;13.54;45.32;99649.07;1638540;86;21553;-74
2021/05/03 09:30:59;;;;;;;1.57;0.78;;;;;;;13.54;45.62;99632.56;1624479;87;21426;-73
2021/05/03 09:33:41;;;;;;;0.90;0.70;;;;;;;13.65;45.51;99621.27;1641228;85;21085;-72
2021/05/03 09:36:13;;;;;;;1.72;0.68;;;;;;;13.76;45.17;99640.29;1630632;87;21093;-72
2021/05/03 09:38:46;;;;;;;1.25;1.00;;;;;;;13.75;44.79;99618.80;1621933;88;21188;-72
2021/05/03 09:41:26;;;;;;;1.50;0.80;;;;;;;13.73;44.98;99624.25;1659319;85;21102;-73
2021/05/03 09:44:07;;;;;;;1.02;0.80;;;;;;;13.70;45.07;99648.95;1622843;87;21172;-75
2021/05/03 09:46:46;;;;;;;1.70;1.07;;;;;;;13.76;45.26;99622.39;1668370;85;21060;-76
2021/05/03 09:49:17;;;;;;;2.60;0.80;;;;;;;13.90;44.58;99625.22;1649309;85;21103;-73
2021/05/03 09:51:48;;;;;;;1.45;0.90;;;;;;;14.02;44.95;99636.24;1623922;88;21109;-76
2021/05/03 09:54:31;;;;;;;1.50;0.90;;;;;;;14.17;44.70;99647.08;1623904;88;21125;-66
2021/05/03 09:57:09;;;;;;;1.57;1.07;;;;;;;14.27;44.63;99621.68;1679285;85;21121;-72
2021/05/03 09:59:48;;;;;;;1.60;1.10;;;;;;;14.42;44.26;99654.30;1650616;85;21232;-74
2021/05/03 10:02:29;;;;;;;3.25;1.00;;;;;;;14.41;43.98;99645.73;1628549;87;21829;-76
2021/05/03 10:07:42;;;;;;;1.35;1.07;;;;;;;14.75;43.65;99672.44;1648413;87;21335;-71
2021/05/03 10:10:14;;;;;;;1.85;1.02;;;;;;;14.79;43.03;99659.84;1646521;87;21180;-69
2021/05/03 10:12:40;;;;;;;0.90;0.80;;;;;;;14.79;42.86;99649.34;1648685;87;21129;-73
2021/05/03 10:15:10;;;;;;;3.12;1.25;;;;;;;14.78;42.73;99673.33;1649466;87;21330;-68
2021/05/03 10:17:39;;;;;;;1.00;0.90;;;;;;;14.67;42.56;99684.38;1650405;87;21433;-69
2021/05/03 10:20:08;;;;;;;1.25;0.95;;;;;;;14.61;42.94;99671.02;1667846;85;21112;-70
2021/05/03 10:22:36;;;;;;;2.72;1.00;;;;;;;14.68;43.21;99677.24;1667120;85;21110;-72
2021/05/03 10:25:12;;;;;;;1.87;0.90;;;;;;;14.82;42.80;99686.92;1648797;87;21356;-71
2021/05/03 10:27:42;;;;;;;3.25;1.10;;;;;;;14.86;42.06;99696.39;1648294;87;21162;-70
2021/05/03 10:30:13;;;;;;;0.82;0.75;;;;;;;14.76;42.05;99681.55;1646956;87;21297;-70
2021/05/03 10:32:41;;;;;;;2.15;1.20;;;;;;;14.62;42.29;99675.45;1674361;85;21095;-71
2021/05/03 10:35:25;;;;;;;3.17;0.93;;;;;;;14.61;42.44;99690.86;1673473;85;21105;-71
2021/05/03 10:37:54;;;;;;;2.90;1.00;;;;;;;14.55;41.96;99693.50;1658649;85;21304;-69
2021/05/03 10:40:29;;;;;;;2.83;1.00;;;;;;;14.57;42.05;99682.23;1671735;85;21118;-69
2021/05/03 10:43:12;;;;;;;2.50;0.90;;;;;;;14.64;41.86;99689.84;1644549;86;21223;-68
2021/05/03 10:46:04;;;;;;;2.15;1.05;;;;;;;14.64;41.99;99677.43;1644411;87;21261;-71
2021/05/03 10:49:00;;;;;;;2.77;1.60;;;;;;;14.71;42.03;99698.82;1644111;87;21793;-70
2021/05/03 10:54:20;;;;;;;2.77;1.00;;;;;;;14.93;41.91;99681.09;1644336;87;21430;-68
2021/05/03 10:56:48;;;;;;;2.27;1.00;;;;;;;14.98;41.51;99675.70;1643608;87;21350;-71
2021/05/03 10:59:16;;;;;;;1.07;0.98;;;;;;;14.90;41.00;99687.09;1679750;85;21075;-71
2021/05/03 11:01:59;;;;;;;2.83;0.98;;;;;;;14.73;41.63;99692.52;1685160;85;21100;-68
2021/05/03 11:04:33;;;;;;;1.92;1.00;;;;;;;14.65;42.06;99694.27;1672687;85;21357;-71
2021/05/03 11:07:04;;;;;;;4.25;1.00;;;;;;;14.75;41.95;99690.90;1646969;87;21177;-72
2021/05/03 11:09:34;;;;;;;1.98;0.95;;;;;;;14.90;41.53;99700.34;1672959;85;21316;-69
2021/05/03 11:12:16;;;;;;;1.00;0.90;;;;;;;14.92;41.48;99705.62;1673272;85;21492;-70
2021/05/03 11:15:18;;;;;;;4.80;0.90;;;;;;;14.89;41.07;99706.94;1683308;84;21074;-69
2021/05/03 11:18:25;;;;;;;4.78;1.12;;;;;;;14.85;41.39;99709.89;1671007;85;21062;-71
2021/05/03 11:21:04;;;;;;;2.45;0.93;;;;;;;14.90;41.33;99698.13;1648595;86;21313;-71
2021/05/03 11:23:34;;;;;;;2.00;1.00;;;;;;;15.09;40.96;99687.79;1671273;85;21062;-70
2021/05/03 11:26:03;;;;;;;1.40;1.00;;;;;;;15.29;40.44;99703.92;1672841;85;21080;-72
2021/05/03 11:28:38;;;;;;;2.02;1.15;;;;;;;15.35;39.84;99689.97;1644913;87;21209;-70
2021/05/03 11:31:15;;;;;;;3.85;1.02;;;;;;;15.36;40.24;99689.44;1675237;85;21272;-71
2021/05/03 11:33:46;;;;;;;3.20;1.05;;;;;;;15.43;39.65;99689.58;1674743;85;21200;-74
2021/05/03 11:36:29;;;;;;;3.00;1.07;;;;;;;15.40;39.81;99683.17;1681391;85;21050;-71
2021/05/03 11:39:46;;;;;;;3.00;1.35;;;;;;;15.50;39.92;99696.33;1681586;85;21086;-73
2021/05/03 11:44:18;;;;;;;3.08;1.30;;;;;;;15.88;39.65;99680.52;1623581;88;21173;-70
2021/05/03 11:46:38;;;;;;;1.60;1.05;;;;;;;16.03;39.27;99689.06;1643642;87;21038;-71
2021/05/03 11:49:14;;;;;;;2.62;1.17;;;;;;;16.13;39.06;99713.27;1648785;85;21737;-66
2021/05/03 11:51:57;;;;;;;2.37;1.10;;;;;;;16.13;38.90;99698.90;1663640;84;21202;-72
2021/05/03 11:54:38;;;;;;;2.40;1.25;;;;;;;15.87;38.97;99684.36;1679093;85;21022;-70
2021/05/03 11:57:09;;;;;;;2.35;1.15;;;;;;;15.62;39.11;99694.41;1681631;85;21057;-70
2021/05/03 11:59:37;;;;;;;2.65;1.00;;;;;;;15.38;39.96;99701.91;1662788;85;21355;-73
2021/05/03 12:02:08;;;;;;;4.50;1.10;;;;;;;15.34;40.00;99685.54;1639044;87;21084;-71
2021/05/03 12:04:48;;;;;;;3.55;1.05;;;;;;;15.47;39.87;99675.58;1632486;87;21106;-73
2021/05/03 12:07:30;;;;;;;4.97;1.10;;;;;;;15.62;39.46;99682.53;1650325;87;21810;-69